Time;durP1;ratioP1;P1;durP2;ratioP2;P2;SDS_P1;SDS_P2;PMS_P1;PMS_P2;Temp;Humidity;BMP_temperature;BMP_pressure;BME280_temperature;BME280_humidity;BME280_pressure;Samples;Min_cycle;Max_cycle;Signal;HPM_P1;HPM_P2
2023/10/02 00:00:35;;;;;;;22.08;15.48;;;;;;;19.20;65.45;100405.72;5050987;28;20041;-81
2023/10/02 00:03:05;;;;;;;22.38;15.27;;;;;;;19.24;66.20;100412.22;5049518;28;20029;-81
2023/10/02 00:05:50;;;;;;;20.15;15.88;;;;;;;19.23;66.52;100420.59;5049430;28;20028;-81
2023/10/02 00:08:34;;;;;;;20.55;15.18;;;;;;;19.21;67.09;100417.34;5051440;28;20033;-81
2023/10/02 00:11:35;;;;;;;21.27;15.38;;;;;;;19.17;67.30;100427.88;5049030;28;20540;-81
2023/10/02 00:14:18;;;;;;;22.15;15.70;;;;;;;19.50;65.96;100433.88;5031042;28;20489;-81
2023/10/02 00:16:42;;;;;;;18.80;14.85;;;;;;;19.22;66.96;100414.38;5041639;28;20132;-87
2023/10/02 00:19:22;;;;;;;21.38;15.75;;;;;;;19.20;67.16;100415.72;5055600;28;20028;-80
2023/10/02 00:21:50;;;;;;;22.05;15.45;;;;;;;19.32;66.97;100420.88;5068946;28;20059;-80
2023/10/02 00:24:16;;;;;;;20.67;14.60;;;;;;;19.16;66.76;100388.41;5053070;28;20561;-81
2023/10/02 00:26:42;;;;;;;23.27;15.75;;;;;;;19.40;67.08;100442.00;5070342;28;20097;-87
2023/10/02 00:29:09;;;;;;;21.77;14.75;;;;;;;19.47;66.52;100429.84;5060855;28;20055;-84
2023/10/02 00:31:38;;;;;;;20.77;15.00;;;;;;;19.48;66.01;100427.94;5070098;28;20054;-83
2023/10/02 00:34:03;;;;;;;;;;;;;;;19.23;67.21;100432.22;5051460;28;20037;-83
2023/10/02 00:36:31;;;;;;;17.70;14.18;;;;;;;19.20;66.82;100419.22;5063627;28;20344;-81
2023/10/02 00:42:10;;;;;;;21.60;15.13;;;;;;;18.64;65.91;100440.66;5050413;28;20512;-81
2023/10/02 00:44:51;;;;;;;20.25;14.20;;;;;;;18.65;66.17;100412.56;5031892;28;20408;-82
2023/10/02 00:47:15;;;;;;;21.35;14.63;;;;;;;18.97;66.92;100450.25;5041628;28;20575;-85
2023/10/02 00:49:41;;;;;;;20.05;14.43;;;;;;;18.70;67.67;100423.38;5055910;28;20024;-81
2023/10/02 00:52:08;;;;;;;19.15;14.48;;;;;;;18.80;67.67;100441.56;5068659;28;20047;-81
2023/10/02 00:54:34;;;;;;;21.38;15.20;;;;;;;18.83;68.14;100444.53;5068905;28;20032;-81
2023/10/02 00:57:16;;;;;;;22.65;15.30;;;;;;;18.87;68.12;100437.53;5063661;28;20107;-80
2023/10/02 00:59:45;;;;;;;21.25;15.63;;;;;;;18.75;68.49;100457.72;5050256;28;20021;-85
2023/10/02 01:02:11;;;;;;;22.15;15.55;;;;;;;18.97;68.04;100458.38;5049970;28;20553;-86
2023/10/02 01:04:37;;;;;;;20.23;14.77;;;;;;;18.85;67.87;100433.47;5050455;28;20108;-81
2023/10/02 01:07:11;;;;;;;20.52;14.73;;;;;;;18.91;68.57;100448.63;5053425;28;20108;-81
2023/10/02 01:09:39;;;;;;;18.88;14.48;;;;;;;18.81;67.75;100435.88;5051831;28;20047;-83
2023/10/02 01:12:10;;;;;;;21.33;15.13;;;;;;;18.95;68.11;100446.22;5070197;28;20086;-84
2023/10/02 01:14:52;;;;;;;18.00;14.38;;;;;;;18.69;67.60;100405.53;5050918;28;20561;-80
2023/10/02 01:17:21;;;;;;;19.77;15.27;;;;;;;18.64;68.26;100429.84;5056330;28;20035;-89
2023/10/02 01:19:53;;;;;;;20.25;15.00;;;;;;;18.58;68.84;100403.91;5052368;28;20028;-80
2023/10/02 01:22:27;;;;;;;21.42;15.10;;;;;;;19.04;68.43;100450.00;5069654;28;20117;-84
2023/10/02 01:25:14;;;;;;;19.17;14.98;;;;;;;18.66;68.50;100403.38;5050123;28;20036;-80
2023/10/02 01:27:41;;;;;;;21.27;14.60;;;;;;;18.95;68.63;100430.00;5043842;28;20477;-82
2023/10/02 01:30:18;;;;;;;19.25;14.32;;;;;;;19.06;67.49;100428.94;5053689;28;20106;-84
2023/10/02 01:33:10;;;;;;;19.55;15.68;;;;;;;18.95;68.20;100408.38;5052398;28;20116;-80
2023/10/02 01:35:46;;;;;;;21.33;14.82;;;;;;;18.76;68.48;100422.34;5052399;28;20021;-81
2023/10/02 01:38:26;;;;;;;20.17;15.43;;;;;;;18.55;69.61;100423.31;5053575;28;20029;-81
2023/10/02 01:40:54;;;;;;;24.05;17.65;;;;;;;18.62;70.08;100443.63;5062324;28;20051;-84
2023/10/02 01:43:26;;;;;;;21.95;16.25;;;;;;;18.42;70.25;100395.72;5068219;28;20032;-80
2023/10/02 01:45:56;;;;;;;22.00;15.65;;;;;;;18.68;69.84;100423.66;5053394;28;20036;-80
2023/10/02 01:48:41;;;;;;;23.23;17.23;;;;;;;18.94;69.08;100433.75;5063696;28;20041;-84
2023/10/02 01:51:21;;;;;;;21.02;16.10;;;;;;;19.03;69.00;100443.78;5055278;28;20056;-85
2023/10/02 01:53:48;;;;;;;19.13;14.93;;;;;;;18.91;69.15;100432.41;5053084;28;20060;-81
2023/10/02 01:56:15;;;;;;;21.40;15.93;;;;;;;18.83;69.10;100417.50;5053393;28;20079;-81
2023/10/02 01:58:42;;;;;;;22.25;16.63;;;;;;;18.94;68.81;100428.34;5052764;28;20053;-80
2023/10/02 02:01:11;;;;;;;19.50;14.23;;;;;;;18.91;68.59;100405.38;5053010;28;20112;-82
2023/10/02 02:03:41;;;;;;;20.92;16.58;;;;;;;19.01;68.73;100445.16;5051799;28;20906;-80
2023/10/02 02:06:10;;;;;;;22.67;16.40;;;;;;;18.80;69.26;100423.47;5053141;28;20060;-81
2023/10/02 02:08:47;;;;;;;22.05;15.93;;;;;;;18.91;68.80;100415.38;5061494;28;20747;-82
2023/10/02 02:11:21;;;;;;;21.20;16.37;;;;;;;18.89;68.92;100409.44;5056236;28;20033;-83
2023/10/02 02:13:52;;;;;;;22.60;16.88;;;;;;;19.03;68.66;100427.59;5052708;28;20475;-82
2023/10/02 02:16:30;;;;;;;21.98;16.45;;;;;;;18.97;68.55;100414.31;5051580;28;20061;-81
2023/10/02 02:18:58;;;;;;;19.17;15.60;;;;;;;18.96;68.90;100426.19;5056370;28;20100;-83
2023/10/02 02:21:24;;;;;;;20.63;15.47;;;;;;;18.85;69.55;100434.28;5059888;28;20127;-83
2023/10/02 02:24:03;;;;;;;21.60;15.55;;;;;;;18.84;69.38;100427.25;5069313;28;20472;-84
2023/10/02 02:26:39;;;;;;;21.85;16.30;;;;;;;18.77;69.16;100421.25;5051709;28;20048;-81
2023/10/02 02:29:05;;;;;;;27.77;17.70;;;;;;;18.96;68.36;100426.19;5056777;28;20112;-80
2023/10/02 02:31:41;;;;;;;25.27;17.40;;;;;;;19.07;68.62;100427.88;5067224;28;20028;-86
2023/10/02 02:34:14;;;;;;;20.17;16.90;;;;;;;19.03;68.70;100443.00;5068337;28;20127;-84
2023/10/02 02:36:41;;;;;;;20.60;15.95;;;;;;;18.95;69.36;100430.78;5052295;28;20028;-81
2023/10/02 02:39:15;;;;;;;20.20;15.37;;;;;;;18.96;68.62;100424.34;5049714;28;20029;-86
2023/10/02 02:42:18;;;;;;;21.40;16.08;;;;;;;18.85;68.98;100426.16;5066677;28;20086;-84
2023/10/02 02:44:50;;;;;;;21.30;16.08;;;;;;;18.84;68.94;100429.97;5064192;28;20028;-82
2023/10/02 02:47:23;;;;;;;26.10;16.90;;;;;;;18.95;68.86;100438.91;5053931;28;20128;-81
2023/10/02 02:49:58;;;;;;;18.75;15.57;;;;;;;18.93;68.88;100453.78;5067066;28;20111;-82
2023/10/02 02:52:26;;;;;;;22.20;16.35;;;;;;;18.86;69.27;100437.81;5056384;28;20043;-83
2023/10/02 02:54:58;;;;;;;21.20;16.70;;;;;;;18.93;68.61;100432.97;5072311;28;20104;-83
2023/10/02 02:57:25;;;;;;;17.85;15.85;;;;;;;19.23;68.97;100464.69;5070604;28;20032;-82
2023/10/02 03:00:29;;;;;;;19.15;15.98;;;;;;;19.15;68.85;100440.06;5066692;28;20032;-83
2023/10/02 03:02:56;;;;;;;21.02;16.52;;;;;;;18.90;69.94;100440.78;5063726;28;20040;-82
2023/10/02 03:05:25;;;;;;;22.15;16.65;;;;;;;18.86;70.96;100465.63;5061294;28;20567;-86
2023/10/02 03:07:56;;;;;;;19.65;16.08;;;;;;;18.89;70.66;100458.88;5051433;28;20029;-84
2023/10/02 03:10:23;;;;;;;19.42;15.95;;;;;;;18.86;70.69;100462.13;5054888;28;20099;-83
2023/10/02 03:12:50;;;;;;;20.33;16.40;;;;;;;19.04;69.74;100468.94;5069757;28;20064;-83
2023/10/02 03:15:20;;;;;;;22.42;15.95;;;;;;;18.51;68.20;100452.75;5061424;28;20041;-82
2023/10/02 03:17:48;;;;;;;24.17;14.70;;;;;;;18.25;68.51;100449.91;5050139;28;20060;-84
2023/10/02 03:20:24;;;;;;;20.38;15.25;;;;;;;18.34;68.49;100458.31;5065249;28;20505;-82
2023/10/02 03:22:53;;;;;;;21.10;16.13;;;;;;;18.71;68.31;100454.72;5058730;28;20067;-84
2023/10/02 03:27:51;;;;;;;20.38;15.93;;;;;;;18.83;66.56;100463.44;5069076;28;20517;-82
2023/10/02 03:30:35;;;;;;;19.83;15.30;;;;;;;18.41;67.41;100453.50;5056142;28;20029;-83
2023/10/02 03:33:17;;;;;;;19.95;15.48;;;;;;;19.14;67.65;100478.97;5062645;28;20029;-82
2023/10/02 03:36:08;;;;;;;20.10;14.77;;;;;;;19.08;66.06;100472.72;5070676;28;20053;-82
2023/10/02 03:38:35;;;;;;;20.40;15.50;;;;;;;18.71;66.27;100489.84;5058374;28;20415;-82
2023/10/02 03:41:02;;;;;;;24.17;15.67;;;;;;;18.86;67.39;100481.84;5068799;28;20032;-82
2023/10/02 03:46:16;;;;;;;20.10;16.33;;;;;;;18.79;67.68;100483.97;5058284;28;20047;-82
2023/10/02 03:48:50;;;;;;;22.73;16.70;;;;;;;18.45;67.22;100460.00;5050510;28;20041;-82
2023/10/02 03:51:36;;;;;;;22.42;16.25;;;;;;;18.99;68.20;100490.56;5050447;28;20035;-82
2023/10/02 03:54:17;;;;;;;21.63;16.20;;;;;;;19.37;65.22;100494.72;5050710;28;20112;-82
2023/10/02 03:56:47;;;;;;;24.05;16.95;;;;;;;19.03;67.10;100497.84;5050402;28;20033;-80
2023/10/02 03:59:17;;;;;;;20.50;16.00;;;;;;;19.10;67.11;100497.59;5049984;28;20032;-84
2023/10/02 04:01:43;;;;;;;31.80;16.70;;;;;;;19.03;65.92;100497.84;5062228;28;20520;-87
2023/10/02 04:06:44;;;;;;;22.88;16.83;;;;;;;18.81;66.63;100506.13;5050530;28;20411;-82
2023/10/02 04:09:18;;;;;;;27.33;17.83;;;;;;;18.64;67.72;100497.38;5050371;28;20421;-82
2023/10/02 04:11:50;;;;;;;23.55;16.30;;;;;;;18.36;68.81;100515.56;5062234;28;20151;-83
2023/10/02 04:14:31;;;;;;;24.23;16.40;;;;;;;18.46;67.93;100515.63;5050668;28;20032;-82
2023/10/02 04:17:10;;;;;;;24.27;16.92;;;;;;;18.53;68.36;100518.13;5064485;28;20036;-83
2023/10/02 04:19:40;;;;;;;27.23;17.10;;;;;;;18.39;68.55;100493.47;5052592;28;20052;-81
2023/10/02 04:22:07;;;;;;;24.13;17.40;;;;;;;18.35;69.09;100497.75;5061555;28;20028;-81
2023/10/02 04:24:51;;;;;;;25.40;17.15;;;;;;;18.19;69.52;100501.41;5068905;28;20484;-82
2023/10/02 04:32:48;;;;;;;25.48;17.42;;;;;;;17.94;68.91;100465.06;5049812;28;20104;-85
2023/10/02 04:37:59;;;;;;;27.83;18.65;;;;;;;18.22;68.63;100515.19;5049883;28;20113;-82
2023/10/02 04:40:37;;;;;;;28.17;17.75;;;;;;;18.38;68.94;100508.03;5067046;28;20028;-81
2023/10/02 04:43:19;;;;;;;25.58;17.80;;;;;;;18.21;68.38;100512.78;5048640;28;20021;-84
2023/10/02 04:45:52;;;;;;;25.23;17.30;;;;;;;18.19;69.31;100506.81;5051532;28;20052;-82
2023/10/02 04:48:26;;;;;;;26.17;17.80;;;;;;;18.28;67.81;100487.16;5068905;28;20138;-84
2023/10/02 04:50:54;;;;;;;24.58;17.13;;;;;;;18.27;68.81;100504.44;5048241;28;20464;-82
2023/10/02 04:53:22;;;;;;;;;;;;;;;18.50;68.36;100528.63;5050465;28;20200;-82
2023/10/02 04:56:07;;;;;;;21.58;16.75;;;;;;;18.37;69.03;100533.41;5048727;28;19917;-80
2023/10/02 04:58:39;;;;;;;25.67;17.80;;;;;;;18.34;68.53;100501.50;5065825;28;20052;-83
2023/10/02 05:03:31;;;;;;;23.90;17.25;;;;;;;18.41;69.20;100534.50;5053723;28;20095;-84
2023/10/02 05:06:02;;;;;;;25.95;18.23;;;;;;;18.56;68.89;100546.50;5053812;28;20111;-84
2023/10/02 05:11:05;;;;;;;26.33;18.13;;;;;;;18.64;68.20;100537.91;5039892;28;20036;-87
2023/10/02 05:16:19;;;;;;;29.13;18.42;;;;;;;18.53;68.58;100536.19;5053947;28;20036;-81
2023/10/02 05:18:47;;;;;;;28.73;17.23;;;;;;;18.62;68.67;100550.84;5054613;28;20162;-82
2023/10/02 05:21:17;;;;;;;23.02;17.58;;;;;;;17.82;70.01;100518.34;5055828;28;20024;-83
2023/10/02 05:24:02;;;;;;;28.85;17.98;;;;;;;17.81;69.59;100516.72;5059861;28;20458;-82
2023/10/02 05:26:32;;;;;;;24.35;18.02;;;;;;;17.90;69.94;100538.66;5052386;28;20025;-82
2023/10/02 05:28:59;;;;;;;27.10;18.25;;;;;;;18.33;68.60;100545.78;5053518;28;20040;-82
2023/10/02 05:31:25;;;;;;;23.15;16.55;;;;;;;18.23;69.51;100559.22;5053379;28;20025;-82
2023/10/02 05:33:52;;;;;;;26.15;17.67;;;;;;;18.40;69.23;100548.28;5052172;28;20037;-85
2023/10/02 05:36:21;;;;;;;27.60;16.63;;;;;;;18.57;69.30;100569.72;5053536;28;20043;-82
2023/10/02 05:39:20;;;;;;;27.98;17.33;;;;;;;18.25;71.01;100570.56;5053685;28;20207;-82
2023/10/02 05:41:44;;;;;;;27.10;16.67;;;;;;;18.28;71.46;100570.03;5048148;28;20032;-83
2023/10/02 05:44:23;;;;;;;21.90;16.08;;;;;;;18.50;70.80;100580.75;5058109;28;20032;-85
2023/10/02 05:47:05;;;;;;;19.92;14.38;;;;;;;18.55;69.67;100571.88;5053079;28;20064;-84
2023/10/02 05:49:31;;;;;;;18.35;13.88;;;;;;;18.75;68.09;100582.81;5051778;28;20048;-86
2023/10/02 05:52:00;;;;;;;19.30;14.10;;;;;;;18.95;68.24;100575.94;5061368;28;20093;-83
2023/10/02 05:54:29;;;;;;;16.80;12.80;;;;;;;18.65;68.66;100571.94;5064896;28;20020;-82
2023/10/02 05:57:12;;;;;;;17.40;13.45;;;;;;;19.12;66.78;100581.94;5051860;28;20029;-82
2023/10/02 05:59:48;;;;;;;22.30;14.45;;;;;;;19.10;67.60;100594.91;5051813;28;20067;-83
2023/10/02 06:02:15;;;;;;;17.35;13.57;;;;;;;19.06;66.81;100566.78;5058593;28;20063;-84
2023/10/02 06:04:48;;;;;;;21.42;14.05;;;;;;;19.12;67.35;100590.06;5065099;28;20028;-84
2023/10/02 06:07:39;;;;;;;20.58;13.80;;;;;;;19.30;65.75;100594.22;5074316;28;20024;-83
2023/10/02 06:10:02;;;;;;;22.85;13.40;;;;;;;19.24;66.98;100593.38;5067742;28;20025;-83
2023/10/02 06:12:30;;;;;;;22.13;13.18;;;;;;;19.53;65.04;100600.25;5060508;28;20121;-83
2023/10/02 06:15:03;;;;;;;18.60;11.85;;;;;;;19.98;63.34;100620.41;5050067;28;20104;-86
2023/10/02 06:17:32;;;;;;;30.08;14.95;;;;;;;19.91;63.83;100599.03;5050774;28;20033;-85
2023/10/02 06:19:57;;;;;;;19.80;11.65;;;;;;;20.10;61.67;100606.63;5053378;28;20057;-84
2023/10/02 06:22:23;;;;;;;16.33;11.30;;;;;;;20.20;60.51;100614.75;5057045;28;20067;-83
2023/10/02 06:24:48;;;;;;;17.92;10.52;;;;;;;20.16;59.39;100613.69;5072663;28;20036;-81
2023/10/02 06:27:15;;;;;;;18.65;12.10;;;;;;;20.10;60.63;100612.84;5071759;28;20464;-85
2023/10/02 06:29:47;;;;;;;14.55;9.98;;;;;;;20.56;58.47;100631.03;5052451;28;20028;-82
2023/10/02 06:32:19;;;;;;;16.98;10.70;;;;;;;20.67;58.74;100647.03;5043769;28;20055;-83
2023/10/02 06:34:46;;;;;;;25.00;13.30;;;;;;;20.70;57.55;100634.84;5071020;28;20016;-82
2023/10/02 06:37:13;;;;;;;15.27;9.60;;;;;;;20.92;56.66;100633.72;5070544;28;20174;-84
2023/10/02 06:39:46;;;;;;;26.83;14.70;;;;;;;20.91;55.92;100645.66;5051575;28;20033;-83
2023/10/02 06:42:17;;;;;;;15.80;9.00;;;;;;;20.79;54.67;100624.28;5067043;28;20093;-83
2023/10/02 06:44:52;;;;;;;12.63;7.35;;;;;;;20.83;53.55;100642.41;5032576;28;20103;-84
2023/10/02 06:47:28;;;;;;;13.07;7.35;;;;;;;20.88;54.80;100649.72;5050332;28;20129;-83
2023/10/02 06:50:02;;;;;;;13.73;6.95;;;;;;;20.98;52.91;100638.06;5033711;28;20091;-84
2023/10/02 06:52:32;;;;;;;17.13;6.90;;;;;;;21.00;52.79;100663.00;5041282;28;20060;-83
2023/10/02 06:54:57;;;;;;;11.48;7.65;;;;;;;20.81;52.89;100660.03;5050342;28;20035;-84
2023/10/02 06:57:26;;;;;;;13.07;7.32;;;;;;;20.84;53.33;100670.31;5051656;28;20029;-82
2023/10/02 06:59:53;;;;;;;14.18;7.05;;;;;;;21.12;52.27;100660.00;5050098;28;20062;-84
2023/10/02 07:02:27;;;;;;;13.68;6.97;;;;;;;21.35;51.53;100669.41;5054009;28;20024;-84
2023/10/02 07:04:55;;;;;;;14.15;6.00;;;;;;;21.47;49.83;100664.53;5031730;28;20410;-82
2023/10/02 07:07:27;;;;;;;18.30;6.57;;;;;;;21.35;50.06;100680.28;5030482;28;20029;-82
2023/10/02 07:10:11;;;;;;;11.18;6.32;;;;;;;21.39;49.93;100662.34;5066777;28;20036;-84
2023/10/02 07:12:40;;;;;;;12.98;6.80;;;;;;;21.64;50.03;100665.00;5053661;28;20031;-80
2023/10/02 07:15:13;;;;;;;10.90;6.47;;;;;;;22.07;48.87;100676.19;5051473;28;20528;-82
2023/10/02 07:17:52;;;;;;;15.07;6.70;;;;;;;22.17;48.01;100686.19;5051310;28;20406;-83
2023/10/02 07:20:23;;;;;;;13.82;6.32;;;;;;;22.32;46.82;100670.91;5032962;28;20030;-81
2023/10/02 07:22:52;;;;;;;27.20;7.65;;;;;;;22.58;45.78;100679.69;5050483;28;20033;-83
2023/10/02 07:25:20;;;;;;;10.95;6.10;;;;;;;22.41;45.23;100659.16;5049489;28;20501;-82
2023/10/02 07:27:48;;;;;;;13.98;5.85;;;;;;;22.67;44.82;100683.41;5049749;28;20033;-81
2023/10/02 07:30:24;;;;;;;11.93;6.18;;;;;;;23.03;43.72;100691.28;5051700;28;20033;-86
2023/10/02 07:32:51;;;;;;;12.07;5.65;;;;;;;23.08;44.05;100682.25;5049402;28;20520;-85
2023/10/02 07:35:26;;;;;;;17.63;6.27;;;;;;;22.90;43.66;100675.59;5062046;28;20029;-81
2023/10/02 07:38:01;;;;;;;11.50;5.47;;;;;;;22.98;43.32;100694.81;5030998;28;20121;-82
2023/10/02 07:40:49;;;;;;;9.45;5.25;;;;;;;23.05;43.76;100697.25;5031262;28;20116;-85
2023/10/02 07:43:18;;;;;;;13.82;5.55;;;;;;;22.83;43.50;100659.63;5066571;28;20021;-83
2023/10/02 07:46:01;;;;;;;9.95;4.90;;;;;;;23.09;42.72;100701.00;5059163;28;20151;-86
2023/10/02 07:48:30;;;;;;;10.18;5.65;;;;;;;22.89;43.53;100687.56;5049082;28;20048;-82
2023/10/02 07:50:57;;;;;;;10.55;5.25;;;;;;;22.89;42.42;100691.09;5051068;28;20040;-86
2023/10/02 07:53:38;;;;;;;9.32;5.28;;;;;;;22.66;43.86;100692.66;5051868;28;20025;-83
2023/10/02 07:56:05;;;;;;;12.50;5.53;;;;;;;22.65;44.06;100685.59;5066032;28;20056;-82
2023/10/02 07:58:31;;;;;;;9.65;5.13;;;;;;;22.90;43.07;100694.63;5049125;28;20397;-85
2023/10/02 08:00:59;;;;;;;13.98;6.03;;;;;;;22.92;42.43;100673.38;5030449;28;20034;-83
2023/10/02 08:03:42;;;;;;;11.50;5.68;;;;;;;22.78;42.44;100684.13;5051821;28;20818;-82
2023/10/02 08:11:40;;;;;;;11.27;5.97;;;;;;;22.81;42.94;100694.44;5050403;28;20032;-82
2023/10/02 08:14:29;;;;;;;12.00;5.97;;;;;;;22.98;42.57;100672.25;5051013;28;20053;-82
2023/10/02 08:17:00;;;;;;;13.20;5.85;;;;;;;23.08;42.18;100683.06;5049734;28;20100;-83
2023/10/02 08:19:26;;;;;;;9.65;5.75;;;;;;;23.11;41.54;100693.38;5050376;28;20033;-82
2023/10/02 08:21:53;;;;;;;11.57;5.80;;;;;;;23.03;41.71;100696.72;5054215;28;20017;-83
2023/10/02 08:24:19;;;;;;;12.60;6.05;;;;;;;22.91;42.90;100685.38;5066310;28;20064;-82
2023/10/02 08:26:44;;;;;;;10.38;5.72;;;;;;;22.93;43.14;100664.94;5070047;28;20409;-83
2023/10/02 08:29:14;;;;;;;11.32;5.82;;;;;;;23.31;41.84;100708.66;5067191;28;20119;-82
2023/10/02 08:31:53;;;;;;;9.63;5.55;;;;;;;23.48;40.71;100702.78;5048954;28;20029;-85
2023/10/02 08:34:24;;;;;;;13.82;6.15;;;;;;;23.39;41.10;100677.28;5055241;28;20032;-83
2023/10/02 08:37:07;;;;;;;8.85;5.38;;;;;;;23.50;41.90;100684.25;5054048;28;20111;-82
2023/10/02 08:39:38;;;;;;;12.88;5.97;;;;;;;23.69;39.57;100697.09;5045263;28;20021;-84
2023/10/02 08:42:11;;;;;;;11.15;5.97;;;;;;;23.76;40.10;100700.25;5043909;28;20032;-84
2023/10/02 08:44:41;;;;;;;10.18;6.22;;;;;;;23.96;40.37;100691.84;5054030;28;20025;-83
2023/10/02 08:47:24;;;;;;;31.35;22.98;;;;;;;24.16;39.45;100688.03;5049153;28;20148;-83
2023/10/02 08:50:03;;;;;;;28.77;17.25;;;;;;;24.17;38.45;100686.94;5050140;28;20020;-82
2023/10/02 08:52:38;;;;;;;14.18;6.15;;;;;;;24.24;38.61;100684.63;5050465;28;20029;-82
2023/10/02 08:58:19;;;;;;;12.23;6.60;;;;;;;24.65;39.20;100680.47;5029744;28;20060;-82
2023/10/02 09:03:42;;;;;;;13.48;8.02;;;;;;;24.57;37.83;100651.16;5058152;28;20025;-84
2023/10/02 09:06:30;;;;;;;11.85;5.40;;;;;;;24.76;37.16;100662.03;5065273;28;20075;-84
2023/10/02 09:11:57;;;;;;;12.60;5.80;;;;;;;25.73;37.16;100679.28;5035107;28;20116;-83
2023/10/02 09:20:03;;;;;;;9.93;5.88;;;;;;;26.01;35.03;100684.72;5058592;28;20035;-85
2023/10/02 09:22:34;;;;;;;8.90;5.28;;;;;;;25.62;35.83;100670.50;5063087;28;20032;-82
2023/10/02 09:25:10;;;;;;;10.32;6.13;;;;;;;25.27;38.31;100674.75;5069480;28;20052;-84
2023/10/02 09:28:04;;;;;;;9.80;5.40;;;;;;;25.69;36.14;100685.69;5066472;28;20547;-84
2023/10/02 09:33:03;;;;;;;10.65;5.82;;;;;;;25.37;35.76;100665.56;5058919;28;20064;-85
2023/10/02 09:35:29;;;;;;;11.43;5.55;;;;;;;25.61;35.68;100679.81;5055373;28;20035;-84
2023/10/02 09:38:06;;;;;;;9.65;5.55;;;;;;;25.79;34.72;100680.00;5067155;28;20623;-83
2023/10/02 09:40:54;;;;;;;10.93;5.57;;;;;;;25.88;34.96;100669.94;5056460;28;20032;-83
2023/10/02 09:43:21;;;;;;;11.77;5.82;;;;;;;26.20;34.28;100685.38;5044478;28;20108;-82
2023/10/02 09:45:58;;;;;;;9.65;5.55;;;;;;;26.13;35.75;100673.25;5053328;28;20025;-83
2023/10/02 09:51:29;;;;;;;11.65;5.90;;;;;;;26.83;32.71;100664.44;5059588;28;20047;-83
2023/10/02 09:54:09;;;;;;;11.80;5.70;;;;;;;26.93;34.50;100662.53;5063113;28;20036;-83
2023/10/02 09:56:51;;;;;;;13.50;5.28;;;;;;;26.51;34.23;100673.72;5070425;28;20032;-85
2023/10/02 09:59:22;;;;;;;13.07;6.20;;;;;;;26.80;33.28;100665.06;5058436;28;20032;-82
2023/10/02 10:08:16;;;;;;;13.43;6.13;;;;;;;27.15;31.95;100670.69;5034017;28;20069;-84
2023/10/02 10:10:57;;;;;;;;;;;;;;;27.20;32.29;100667.81;5054766;28;20617;-84
2023/10/02 10:13:37;;;;;;;10.18;5.50;;;;;;;27.32;32.84;100650.00;5043579;28;19977;-86
2023/10/02 10:16:20;;;;;;;11.88;5.47;;;;;;;27.57;30.76;100654.75;5068446;28;20060;-85
2023/10/02 10:21:57;;;;;;;7.70;5.03;;;;;;;27.93;30.97;100661.94;5049775;28;20047;-83
2023/10/02 10:24:37;;;;;;;9.85;5.60;;;;;;;27.94;32.14;100636.13;5052561;28;20061;-84
2023/10/02 10:27:03;;;;;;;10.93;5.72;;;;;;;27.25;31.75;100618.41;5068696;28;20062;-83
2023/10/02 10:29:41;;;;;;;9.93;5.75;;;;;;;27.61;32.04;100642.03;5053299;28;20531;-87
2023/10/02 10:32:23;;;;;;;10.13;6.05;;;;;;;27.75;31.98;100639.16;5053181;28;20147;-85
2023/10/02 10:35:17;;;;;;;13.60;6.55;;;;;;;27.62;30.86;100629.97;5052306;28;20037;-84
2023/10/02 10:37:47;;;;;;;10.00;5.45;;;;;;;28.03;32.31;100638.88;5065661;28;20036;-83
2023/10/02 10:40:43;;;;;;;9.43;5.95;;;;;;;28.54;31.09;100641.91;5052917;28;20101;-83
2023/10/02 10:43:12;;;;;;;12.23;5.77;;;;;;;28.36;31.59;100613.66;5065570;28;20032;-82
2023/10/02 10:45:39;;;;;;;10.25;5.72;;;;;;;28.84;30.43;100634.56;5052634;28;20032;-81
2023/10/02 10:48:27;;;;;;;9.70;6.13;;;;;;;28.38;30.95;100636.91;5049703;28;20047;-85
2023/10/02 10:50:59;;;;;;;13.35;6.22;;;;;;;28.27;31.69;100616.44;5031907;28;20045;-83
2023/10/02 10:53:30;;;;;;;11.95;5.80;;;;;;;27.86;31.66;100604.00;5063928;28;20025;-83
2023/10/02 10:56:17;;;;;;;10.32;5.78;;;;;;;28.07;32.34;100612.41;5050497;28;20081;-83
2023/10/02 10:58:47;;;;;;;11.57;5.05;;;;;;;28.19;32.31;100604.34;5052877;28;20112;-83
2023/10/02 11:01:16;;;;;;;9.98;5.82;;;;;;;28.12;31.04;100604.03;5051132;28;20482;-82
2023/10/02 11:03:48;;;;;;;11.93;5.50;;;;;;;28.07;32.95;100603.38;5052457;28;20065;-82
2023/10/02 11:06:15;;;;;;;10.45;5.68;;;;;;;28.35;31.44;100609.31;5068466;28;20039;-86
2023/10/02 11:08:44;;;;;;;9.32;5.28;;;;;;;28.00;31.51;100590.97;5060573;28;20040;-84
2023/10/02 11:11:21;;;;;;;9.75;5.45;;;;;;;28.09;32.11;100592.91;5052313;28;20025;-84
2023/10/02 11:13:54;;;;;;;9.35;5.50;;;;;;;27.06;32.97;100590.47;5066692;28;20032;-84
2023/10/02 11:16:30;;;;;;;10.75;5.60;;;;;;;27.23;32.88;100582.34;5052220;28;20452;-86
2023/10/02 11:19:10;;;;;;;9.25;5.10;;;;;;;28.55;31.66;100594.16;5052265;28;20037;-84
2023/10/02 11:21:45;;;;;;;9.68;5.57;;;;;;;27.95;31.26;100561.00;5052658;28;20035;-87
2023/10/02 11:24:21;;;;;;;10.65;4.82;;;;;;;28.83;29.63;100592.59;5053265;28;20028;-86
2023/10/02 11:26:46;;;;;;;10.80;5.72;;;;;;;28.91;30.05;100574.47;5058997;28;20105;-84
2023/10/02 11:29:22;;;;;;;8.32;4.72;;;;;;;28.16;30.67;100579.53;5070144;28;20032;-85
2023/10/02 11:34:43;;;;;;;10.10;5.10;;;;;;;27.96;31.36;100579.03;5051883;28;20036;-83
2023/10/02 11:37:15;;;;;;;8.88;5.22;;;;;;;28.27;30.50;100588.22;5052896;28;20275;-85
2023/10/02 11:39:42;;;;;;;9.32;5.43;;;;;;;27.92;31.20;100589.03;5051280;28;20565;-84
2023/10/02 11:42:08;;;;;;;10.03;5.43;;;;;;;27.54;32.20;100575.94;5049510;28;20028;-85
2023/10/02 11:44:34;;;;;;;10.98;5.43;;;;;;;27.83;32.20;100580.81;5050330;28;20506;-86
2023/10/02 11:47:01;;;;;;;11.88;5.53;;;;;;;28.12;31.96;100570.34;5054384;28;20048;-84
2023/10/02 11:49:29;;;;;;;8.35;5.38;;;;;;;27.89;31.21;100589.72;5050750;28;20036;-85
2023/10/02 11:52:00;;;;;;;;;;;;;;;28.24;30.34;100600.66;5050700;28;20086;-83
2023/10/02 11:54:26;;;;;;;10.85;5.75;;;;;;;28.14;30.72;100576.31;5067072;28;19924;-84
2023/10/02 11:56:51;;;;;;;13.15;5.75;;;;;;;27.98;30.52;100560.34;5065745;28;20467;-83
2023/10/02 11:59:17;;;;;;;10.77;5.95;;;;;;;28.02;32.17;100577.75;5063159;28;20506;-82
2023/10/02 12:01:45;;;;;;;8.43;5.20;;;;;;;27.35;31.37;100559.00;5049320;28;20033;-84
2023/10/02 12:04:10;;;;;;;10.18;5.57;;;;;;;27.19;31.30;100573.13;5050669;28;20490;-85
2023/10/02 12:06:38;;;;;;;13.25;6.18;;;;;;;27.83;31.38;100549.84;5051981;28;20120;-84
2023/10/02 12:09:04;;;;;;;8.63;5.90;;;;;;;28.69;31.15;100586.50;5063392;28;20024;-84
2023/10/02 12:11:32;;;;;;;10.45;5.55;;;;;;;29.01;30.13;100567.78;5050506;28;20488;-89
2023/10/02 12:13:57;;;;;;;13.20;6.00;;;;;;;28.60;30.24;100572.81;5050567;28;21280;-84
2023/10/02 12:16:23;;;;;;;8.85;6.00;;;;;;;27.91;31.91;100571.00;5050653;28;20041;-84
2023/10/02 12:18:51;;;;;;;13.25;7.18;;;;;;;28.05;32.11;100562.59;5053546;28;20068;-85
2023/10/02 12:21:21;;;;;;;9.48;6.28;;;;;;;27.73;33.30;100553.72;5050053;28;20029;-83
2023/10/02 12:23:49;;;;;;;11.02;6.30;;;;;;;27.59;33.53;100558.56;5049252;28;20108;-85
2023/10/02 12:26:19;;;;;;;9.80;7.32;;;;;;;27.28;33.26;100575.09;5050385;28;20417;-85
2023/10/02 12:28:45;;;;;;;10.85;6.43;;;;;;;27.11;34.72;100568.41;5046520;28;20041;-84
2023/10/02 12:31:13;;;;;;;9.60;6.45;;;;;;;27.12;33.11;100581.00;5050423;28;20044;-84
2023/10/02 12:33:45;;;;;;;11.48;5.90;;;;;;;27.42;32.71;100570.28;5054893;28;20493;-84
2023/10/02 12:36:12;;;;;;;11.75;6.38;;;;;;;27.56;33.31;100570.16;5060606;28;20045;-84
2023/10/02 12:38:40;;;;;;;9.63;5.82;;;;;;;27.45;32.26;100547.75;5054106;28;20028;-83
2023/10/02 12:41:18;;;;;;;9.05;5.78;;;;;;;27.59;32.80;100577.72;5048549;28;20037;-85
2023/10/02 12:43:47;;;;;;;14.13;6.28;;;;;;;27.12;33.33;100556.34;5049414;28;20025;-85